Time;durP1;ratioP1;P1;durP2;ratioP2;P2;SDS_P1;SDS_P2;PMS_P1;PMS_P2;Temp;Humidity;BMP_temperature;BMP_pressure;BME280_temperature;BME280_humidity;BME280_pressure;Samples;Min_cycle;Max_cycle;Signal;HPM_P1;HPM_P2
2023/08/18 00:00:43;;;;;;;11.48;9.45;;;;;;;18.03;93.85;101746.56;5021384;28;20404;-69
2023/08/18 00:03:08;;;;;;;10.93;9.50;;;;;;;18.04;94.07;101744.72;5019675;28;20038;-68
2023/08/18 00:05:33;;;;;;;10.50;9.40;;;;;;;18.03;94.14;101743.88;5024555;28;20076;-68
2023/08/18 00:07:58;;;;;;;10.98;9.80;;;;;;;18.00;94.21;101730.84;5022383;28;20040;-68
2023/08/18 00:10:24;;;;;;;10.50;9.43;;;;;;;18.00;94.23;101725.47;5024686;28;20618;-68
2023/08/18 00:12:49;;;;;;;11.85;9.48;;;;;;;18.00;94.18;101728.16;5027739;28;20079;-68
2023/08/18 00:15:14;;;;;;;9.95;8.80;;;;;;;18.02;94.00;101739.53;5028735;28;20064;-68
2023/08/18 00:17:41;;;;;;;11.52;9.88;;;;;;;18.02;93.99;101734.16;5027686;28;20060;-68
2023/08/18 00:20:08;;;;;;;13.07;10.05;;;;;;;18.03;94.01;101733.13;5027558;28;20058;-68
2023/08/18 00:22:33;;;;;;;11.52;9.40;;;;;;;18.01;93.99;101726.28;5027353;28;20080;-68
2023/08/18 00:24:58;;;;;;;10.35;9.30;;;;;;;18.01;93.96;101731.66;5030166;28;20037;-69
2023/08/18 00:27:24;;;;;;;12.13;9.52;;;;;;;17.99;93.82;101733.72;5028243;28;20039;-68
2023/08/18 00:29:49;;;;;;;10.98;9.50;;;;;;;18.02;93.86;101728.78;5026989;28;20394;-68
2023/08/18 00:32:14;;;;;;;11.40;10.13;;;;;;;17.98;93.60;101722.16;5029599;28;20036;-68
2023/08/18 00:34:40;;;;;;;11.93;10.07;;;;;;;17.95;93.62;101722.53;5027738;28;20028;-68
2023/08/18 00:37:05;;;;;;;15.25;10.05;;;;;;;17.94;93.48;101720.88;5027577;28;20036;-68
2023/08/18 00:39:31;;;;;;;11.38;10.13;;;;;;;17.93;93.37;101724.59;5025340;28;20103;-68
2023/08/18 00:41:57;;;;;;;13.18;10.35;;;;;;;17.91;93.50;101722.06;5028514;28;20031;-68
2023/08/18 00:44:22;;;;;;;12.90;9.70;;;;;;;17.90;93.75;101728.47;5024669;28;20029;-68
2023/08/18 00:46:47;;;;;;;12.82;9.98;;;;;;;17.90;93.74;101730.34;5026073;28;20429;-68
2023/08/18 00:49:16;;;;;;;12.48;9.88;;;;;;;17.88;93.96;101724.34;5024257;28;20045;-68
2023/08/18 00:51:41;;;;;;;10.68;9.52;;;;;;;17.87;93.84;101726.19;5024083;28;20068;-68
2023/08/18 00:54:08;;;;;;;10.75;9.52;;;;;;;17.85;93.93;101719.34;5023078;28;20053;-69
2023/08/18 00:56:33;;;;;;;12.27;9.45;;;;;;;17.86;94.07;101718.31;5026401;28;20112;-68
2023/08/18 00:58:59;;;;;;;11.93;9.75;;;;;;;17.85;93.79;101724.72;5023064;28;20112;-68
2023/08/18 01:01:25;;;;;;;12.15;9.50;;;;;;;17.84;93.66;101720.38;5025288;28;20022;-68
2023/08/18 01:03:51;;;;;;;10.20;9.20;;;;;;;17.84;93.91;101723.06;5026596;28;20025;-68
2023/08/18 01:06:16;;;;;;;11.88;9.13;;;;;;;17.81;93.73;101718.09;5025219;28;20040;-68
2023/08/18 01:08:42;;;;;;;12.60;8.98;;;;;;;17.79;93.79;101720.16;5028154;28;20039;-68
2023/08/18 01:11:41;;;;;;;10.35;9.25;;;;;;;17.81;93.90;101718.09;5026124;28;20372;-68
2023/08/18 01:14:26;;;;;;;11.25;9.05;;;;;;;17.79;93.86;101717.47;5024448;28;20037;-68
2023/08/18 01:16:57;;;;;;;10.45;9.20;;;;;;;17.75;93.71;101711.66;5025769;28;20026;-69
2023/08/18 01:19:23;;;;;;;11.73;8.80;;;;;;;17.74;93.82;101712.69;5021693;28;20073;-68
2023/08/18 01:21:54;;;;;;;11.85;9.95;;;;;;;17.73;93.79;101708.34;5024670;28;20483;-68
2023/08/18 01:24:20;;;;;;;11.10;9.70;;;;;;;17.73;93.67;101712.88;5026309;28;20045;-68
2023/08/18 01:26:46;;;;;;;11.20;9.27;;;;;;;17.74;93.93;101701.09;5027044;28;20029;-68
2023/08/18 01:29:12;;;;;;;11.38;9.73;;;;;;;17.74;93.84;101703.78;5028239;28;20418;-68
2023/08/18 01:31:38;;;;;;;10.98;9.63;;;;;;;17.73;94.00;101697.59;5023409;28;20054;-68
2023/08/18 01:34:08;;;;;;;10.98;9.85;;;;;;;17.71;94.08;101701.50;5028234;28;20118;-68
2023/08/18 01:36:39;;;;;;;12.50;10.32;;;;;;;17.72;94.02;101700.47;5026311;28;20048;-69
2023/08/18 01:39:06;;;;;;;12.23;10.10;;;;;;;17.69;94.05;101696.31;5027578;28;20658;-68
2023/08/18 01:41:32;;;;;;;12.57;10.50;;;;;;;17.67;93.89;101693.00;5021731;28;20419;-68
2023/08/18 01:43:59;;;;;;;11.98;10.55;;;;;;;17.64;93.79;101683.47;5023096;28;20029;-68
2023/08/18 01:46:24;;;;;;;12.52;10.50;;;;;;;17.65;94.09;101685.13;5021841;28;20037;-68
2023/08/18 01:48:49;;;;;;;12.43;10.75;;;;;;;17.65;93.99;101681.59;5027359;28;20650;-68
2023/08/18 01:51:15;;;;;;;11.55;10.25;;;;;;;17.64;94.09;101677.25;5024397;28;20022;-68
2023/08/18 01:53:40;;;;;;;13.55;10.23;;;;;;;17.62;93.91;101682.78;5023777;28;20026;-69
2023/08/18 01:56:05;;;;;;;12.60;10.82;;;;;;;17.61;94.11;101678.44;5025054;28;20037;-68
2023/08/18 01:58:31;;;;;;;13.00;10.38;;;;;;;17.61;94.14;101678.44;5023955;28;20392;-68
2023/08/18 02:00:56;;;;;;;12.98;10.43;;;;;;;17.60;94.39;101671.41;5026147;28;20022;-68
2023/08/18 02:03:31;;;;;;;13.57;10.43;;;;;;;17.57;94.57;101674.50;5025651;28;20068;-69
2023/08/18 02:05:56;;;;;;;13.13;10.82;;;;;;;17.56;94.28;101672.00;5025308;28;20037;-68
2023/08/18 02:08:22;;;;;;;15.70;11.10;;;;;;;17.54;94.57;101674.91;5026331;28;20033;-69
2023/08/18 02:10:47;;;;;;;11.57;10.32;;;;;;;17.54;94.43;101682.13;5023206;28;20483;-68
2023/08/18 02:13:13;;;;;;;13.65;10.95;;;;;;;17.50;94.50;101681.69;5024049;28;20482;-68
2023/08/18 02:15:38;;;;;;;14.60;10.90;;;;;;;17.53;94.44;101680.47;5027120;28;20040;-68
2023/08/18 02:18:04;;;;;;;13.48;11.27;;;;;;;17.52;94.44;101674.25;5022651;28;20029;-68
2023/08/18 02:20:29;;;;;;;13.65;10.73;;;;;;;17.51;94.49;101674.47;5025968;28;20033;-68
2023/08/18 02:22:54;;;;;;;12.82;10.75;;;;;;;17.51;94.74;101669.91;5022643;28;20029;-68
2023/08/18 02:25:21;;;;;;;13.23;10.77;;;;;;;17.50;94.67;101679.00;5024762;28;20482;-68
2023/08/18 02:27:46;;;;;;;13.38;11.15;;;;;;;17.50;94.76;101678.19;5026159;28;20017;-68
2023/08/18 02:30:11;;;;;;;14.90;10.88;;;;;;;17.49;94.68;101671.16;5024656;28;20376;-68
2023/08/18 02:32:37;;;;;;;13.48;10.98;;;;;;;17.47;94.75;101665.13;5024789;28;20026;-68
2023/08/18 02:35:02;;;;;;;12.32;11.10;;;;;;;17.47;94.80;101662.47;5025507;28;20428;-68
2023/08/18 02:37:28;;;;;;;13.10;10.80;;;;;;;17.41;94.75;101649.81;5021868;28;20034;-68
2023/08/18 02:39:53;;;;;;;12.77;11.23;;;;;;;17.43;94.81;101658.50;5023173;28;20032;-68
2023/08/18 02:42:19;;;;;;;17.33;11.50;;;;;;;17.40;94.85;101659.72;5024886;28;20037;-68
2023/08/18 02:44:45;;;;;;;12.25;10.95;;;;;;;17.38;94.73;101658.25;5023878;28;20669;-69
2023/08/18 02:47:10;;;;;;;14.02;11.52;;;;;;;17.37;94.87;101654.75;5027311;28;20104;-68
2023/08/18 02:49:35;;;;;;;12.95;11.60;;;;;;;17.35;94.99;101654.13;5025811;28;20017;-68
2023/08/18 02:52:01;;;;;;;13.90;11.63;;;;;;;17.35;95.19;101656.81;5025848;28;20533;-68
2023/08/18 02:54:26;;;;;;;12.70;10.93;;;;;;;17.34;95.21;101655.94;5024966;28;20032;-68
2023/08/18 02:56:52;;;;;;;14.60;10.93;;;;;;;17.33;95.21;101656.13;5025873;28;20036;-69
2023/08/18 02:59:17;;;;;;;12.60;10.95;;;;;;;17.38;95.27;101660.94;5024837;28;20112;-69
2023/08/18 03:01:43;;;;;;;12.60;11.27;;;;;;;17.32;95.34;101652.63;5022900;28;20510;-68
2023/08/18 03:04:08;;;;;;;12.45;11.05;;;;;;;17.33;95.37;101656.97;5022975;28;20021;-68
2023/08/18 03:06:33;;;;;;;12.13;10.77;;;;;;;17.27;95.46;101644.34;5023303;28;20067;-68
2023/08/18 03:08:58;;;;;;;12.50;11.20;;;;;;;17.30;95.40;101648.47;5026912;28;20030;-68
2023/08/18 03:11:24;;;;;;;13.35;11.10;;;;;;;17.29;95.29;101654.88;5020432;28;20022;-68
2023/08/18 03:13:51;;;;;;;11.82;10.63;;;;;;;17.31;95.47;101650.13;5021291;28;20517;-68
2023/08/18 03:16:18;;;;;;;12.68;11.30;;;;;;;17.29;95.48;101636.91;5026014;28;20021;-68
2023/08/18 03:18:43;;;;;;;14.50;11.07;;;;;;;17.27;95.28;101644.34;5025642;28;20056;-68
2023/08/18 03:21:08;;;;;;;12.57;10.52;;;;;;;17.25;95.46;101643.69;5025243;28;20057;-68
2023/08/18 03:23:33;;;;;;;11.98;10.77;;;;;;;17.24;95.27;101644.72;5022806;28;20018;-68
2023/08/18 03:26:04;;;;;;;13.82;11.23;;;;;;;17.20;95.33;101643.47;5025597;28;20483;-68
2023/08/18 03:28:31;;;;;;;12.88;10.75;;;;;;;17.20;95.49;101650.69;5025866;28;20056;-68
2023/08/18 03:31:03;;;;;;;14.07;10.48;;;;;;;17.18;95.19;101650.03;5023029;28;20033;-68
2023/08/18 03:33:29;;;;;;;13.65;10.32;;;;;;;17.17;95.37;101649.22;5026379;28;20045;-68
2023/08/18 03:35:55;;;;;;;13.73;10.32;;;;;;;17.17;95.35;101649.22;5024557;28;20128;-68
2023/08/18 03:38:21;;;;;;;12.80;10.63;;;;;;;17.15;95.26;101648.59;5024582;28;20029;-69
2023/08/18 03:40:56;;;;;;;14.45;10.18;;;;;;;17.11;95.10;101644.63;5023764;28;20479;-69
2023/08/18 03:43:21;;;;;;;12.35;10.57;;;;;;;17.08;95.11;101639.66;5024613;28;20247;-69
2023/08/18 03:45:46;;;;;;;11.30;10.10;;;;;;;17.08;95.33;101634.28;5025468;28;20495;-68
2023/08/18 03:48:12;;;;;;;11.13;10.02;;;;;;;17.08;95.12;101639.66;5028976;28;20068;-68
2023/08/18 03:50:38;;;;;;;11.95;10.40;;;;;;;17.07;95.38;101643.38;5028527;28;20505;-68
2023/08/18 03:53:03;;;;;;;12.70;11.20;;;;;;;17.04;95.13;101644.56;5023377;28;20022;-68
2023/08/18 03:55:28;;;;;;;12.63;11.25;;;;;;;17.01;95.11;101642.25;5025542;28;20064;-68
2023/08/18 03:57:54;;;;;;;12.50;10.88;;;;;;;16.99;95.12;101646.16;5026569;28;20013;-68
2023/08/18 04:00:19;;;;;;;12.45;10.75;;;;;;;16.99;95.17;101652.34;5024743;28;20139;-68
2023/08/18 04:02:44;;;;;;;12.68;11.38;;;;;;;16.97;95.31;101649.03;5028587;28;20040;-68
2023/08/18 04:05:09;;;;;;;12.52;10.82;;;;;;;16.92;95.60;101650.66;5027374;28;20037;-68
2023/08/18 04:07:35;;;;;;;14.38;11.57;;;;;;;16.93;95.58;101653.13;5026089;28;20033;-68
2023/08/18 04:10:00;;;;;;;12.85;11.07;;;;;;;16.92;95.53;101653.31;5028726;28;20017;-68
2023/08/18 04:12:25;;;;;;;13.85;10.95;;;;;;;16.90;95.55;101648.16;5027824;28;20032;-68
2023/08/18 04:14:51;;;;;;;13.77;11.43;;;;;;;16.91;95.57;101640.94;5028659;28;20082;-68
2023/08/18 04:17:16;;;;;;;14.57;11.77;;;;;;;16.88;96.00;101635.97;5026703;28;20506;-70
2023/08/18 04:19:41;;;;;;;14.88;11.50;;;;;;;16.89;96.06;101635.75;5029324;28;20167;-68
2023/08/18 04:22:07;;;;;;;14.52;11.85;;;;;;;16.91;96.12;101639.09;5026603;28;20383;-68
2023/08/18 04:24:32;;;;;;;14.07;12.48;;;;;;;16.89;96.13;101643.81;5028304;28;20025;-68
2023/08/18 04:27:00;;;;;;;15.52;12.35;;;;;;;16.86;96.16;101641.50;5029296;28;20065;-69
2023/08/18 04:29:26;;;;;;;16.08;12.35;;;;;;;16.86;96.24;101646.88;5027332;28;20478;-69
2023/08/18 04:31:51;;;;;;;17.02;12.52;;;;;;;16.85;96.27;101639.84;5023894;28;20549;-68
2023/08/18 04:34:17;;;;;;;14.95;13.00;;;;;;;16.83;96.14;101628.50;5026573;28;20046;-69
2023/08/18 04:36:42;;;;;;;14.68;12.55;;;;;;;16.82;96.31;101623.31;5026089;28;20032;-68
2023/08/18 04:39:10;;;;;;;17.10;12.68;;;;;;;16.80;96.70;101620.84;5026290;28;20026;-68
2023/08/18 04:41:35;;;;;;;15.18;12.98;;;;;;;16.79;96.71;101621.84;5026048;28;20100;-68
2023/08/18 04:44:00;;;;;;;16.55;13.27;;;;;;;16.79;96.94;101629.91;5027200;28;20039;-68
2023/08/18 04:46:26;;;;;;;16.58;13.55;;;;;;;16.80;96.82;101638.78;5028369;28;20469;-68
2023/08/18 04:48:51;;;;;;;16.20;13.15;;;;;;;16.74;96.78;101632.31;5025609;28;20060;-69
2023/08/18 04:51:16;;;;;;;15.35;12.93;;;;;;;16.81;96.89;101638.59;5026264;28;20021;-68
2023/08/18 04:53:41;;;;;;;17.80;13.88;;;;;;;16.81;97.13;101637.75;5028481;28;20025;-68
2023/08/18 04:56:08;;;;;;;14.98;13.13;;;;;;;16.84;97.02;101638.19;5024971;28;20031;-68
2023/08/18 04:58:33;;;;;;;14.35;12.85;;;;;;;16.87;97.09;101642.34;5025936;28;20095;-68
2023/08/18 05:01:01;;;;;;;16.67;13.65;;;;;;;16.90;97.17;101637.44;5024890;28;20494;-68
2023/08/18 05:03:26;;;;;;;16.23;13.05;;;;;;;16.93;97.20;101638.88;5027746;28;20057;-68
2023/08/18 05:06:03;;;;;;;16.92;13.80;;;;;;;16.96;97.24;101635.81;5026173;28;20053;-68
2023/08/18 05:08:30;;;;;;;16.15;14.45;;;;;;;16.95;97.08;101640.34;5020526;28;20427;-68
2023/08/18 05:10:57;;;;;;;16.92;13.30;;;;;;;16.97;97.04;101650.91;5024419;28;20150;-68
2023/08/18 05:13:23;;;;;;;17.20;13.77;;;;;;;16.98;97.20;101644.50;5024537;28;20025;-68
2023/08/18 05:15:48;;;;;;;16.77;13.52;;;;;;;16.98;97.17;101641.81;5026144;28;20033;-68
2023/08/18 05:18:14;;;;;;;17.63;13.63;;;;;;;16.97;96.95;101646.34;5029838;28;20062;-68
2023/08/18 05:20:39;;;;;;;18.15;13.75;;;;;;;16.96;96.93;101642.00;5012440;28;20030;-68
2023/08/18 05:23:05;;;;;;;15.10;13.45;;;;;;;16.95;96.97;101636.84;5023486;28;20036;-68
2023/08/18 05:25:31;;;;;;;16.10;14.02;;;;;;;16.97;96.72;101630.25;5025874;28;20060;-68
2023/08/18 05:27:57;;;;;;;16.98;13.90;;;;;;;16.98;97.15;101623.03;5026583;28;20057;-68
2023/08/18 05:30:22;;;;;;;18.60;14.93;;;;;;;16.97;97.36;101619.53;5027249;28;20454;-68
2023/08/18 05:32:47;;;;;;;18.95;14.50;;;;;;;17.00;97.77;101620.97;5018188;28;20056;-68
2023/08/18 05:35:12;;;;;;;21.30;15.50;;;;;;;17.01;97.64;101622.66;5023492;28;20017;-68
2023/08/18 05:37:38;;;;;;;19.15;14.68;;;;;;;17.02;97.68;101625.13;5009402;28;20025;-68
2023/08/18 05:40:04;;;;;;;19.83;14.88;;;;;;;17.06;97.79;101627.44;5008231;28;20018;-68
2023/08/18 05:42:29;;;;;;;19.55;14.73;;;;;;;17.08;98.07;101620.88;5020155;28;20569;-68
2023/08/18 05:44:54;;;;;;;20.70;14.75;;;;;;;17.13;97.76;101620.28;5022303;28;20030;-68
2023/08/18 05:47:20;;;;;;;19.95;15.48;;;;;;;17.12;97.65;101616.75;5019729;28;20386;-68
2023/08/18 05:49:45;;;;;;;18.83;16.00;;;;;;;17.12;97.68;101618.63;5014412;28;20029;-68
2023/08/18 05:52:10;;;;;;;21.05;15.95;;;;;;;17.14;97.83;101630.00;5011655;28;20053;-68
2023/08/18 05:54:35;;;;;;;24.48;16.40;;;;;;;17.14;97.72;101633.50;5020236;28;20030;-68
2023/08/18 05:57:01;;;;;;;19.73;15.40;;;;;;;17.18;97.87;101628.56;5025582;28;20047;-68
2023/08/18 05:59:26;;;;;;;18.63;15.40;;;;;;;17.18;97.84;101628.56;5026025;28;20017;-69
2023/08/18 06:01:52;;;;;;;22.33;16.13;;;;;;;17.17;98.24;101633.13;5016177;28;20026;-68
2023/08/18 06:04:17;;;;;;;22.15;15.70;;;;;;;17.19;98.00;101632.91;5011125;28;20025;-68
2023/08/18 06:06:43;;;;;;;21.52;16.75;;;;;;;17.18;98.02;101633.94;5012502;28;20631;-68
2023/08/18 06:09:08;;;;;;;24.90;16.98;;;;;;;17.15;97.88;101631.66;5008544;28;20430;-68
2023/08/18 06:11:33;;;;;;;25.98;16.83;;;;;;;17.11;97.75;101622.34;5009450;28;20045;-68
2023/08/18 06:13:59;;;;;;;23.90;16.67;;;;;;;17.10;98.08;101626.88;5013051;28;20021;-68
2023/08/18 06:16:24;;;;;;;23.83;17.60;;;;;;;17.10;98.39;101626.88;5017633;28;20057;-68
2023/08/18 06:18:50;;;;;;;24.42;17.33;;;;;;;17.13;98.56;101637.22;5026480;28;20037;-68
2023/08/18 06:21:15;;;;;;;22.63;17.85;;;;;;;17.14;98.79;101640.72;5022616;28;20110;-68
2023/08/18 06:23:41;;;;;;;23.90;17.58;;;;;;;17.18;98.70;101639.31;5014634;28;20041;-68
2023/08/18 06:26:06;;;;;;;22.38;17.00;;;;;;;17.20;98.81;101629.22;5026979;28;20491;-69
2023/08/18 06:28:31;;;;;;;22.02;17.05;;;;;;;17.19;98.64;101627.53;5020421;28;20513;-68
2023/08/18 06:31:04;;;;;;;25.05;17.48;;;;;;;17.20;98.56;101637.25;5023469;28;20048;-68
2023/08/18 06:33:30;;;;;;;21.02;17.23;;;;;;;17.19;98.63;101640.97;5025414;28;20033;-68
2023/08/18 06:35:55;;;;;;;25.00;18.50;;;;;;;17.18;98.63;101633.94;5022686;28;20100;-68
2023/08/18 06:38:20;;;;;;;26.58;18.95;;;;;;;17.19;98.45;101624.88;5022187;28;20041;-68
2023/08/18 06:40:45;;;;;;;25.15;18.60;;;;;;;17.21;98.61;101617.44;5024505;28;20083;-68
2023/08/18 06:43:11;;;;;;;22.98;17.83;;;;;;;17.22;98.91;101627.16;5022806;28;20635;-68
2023/08/18 06:45:36;;;;;;;25.10;18.73;;;;;;;17.25;98.61;101621.41;5024176;28;20036;-68
2023/08/18 06:48:01;;;;;;;24.30;18.25;;;;;;;17.28;99.12;101618.31;5023256;28;20022;-68
2023/08/18 06:50:27;;;;;;;24.55;19.02;;;;;;;17.33;99.30;101623.91;5018113;28;20017;-68
2023/08/18 06:52:52;;;;;;;22.38;18.52;;;;;;;17.33;98.96;101627.44;5019642;28;20032;-68
2023/08/18 06:55:17;;;;;;;22.67;17.83;;;;;;;17.34;98.71;101621.03;5015886;28;20022;-68
2023/08/18 06:57:43;;;;;;;21.88;17.95;;;;;;;17.32;98.67;101616.91;5016104;28;20026;-68
2023/08/18 07:00:09;;;;;;;26.10;18.38;;;;;;;17.30;98.59;101610.91;5023477;28;20422;-68
2023/08/18 07:02:35;;;;;;;22.63;18.27;;;;;;;17.32;98.77;101620.41;5026639;28;20033;-68
2023/08/18 07:05:00;;;;;;;26.45;18.80;;;;;;;17.33;98.83;101615.88;5027766;28;20104;-68
2023/08/18 07:07:26;;;;;;;25.55;19.35;;;;;;;17.36;98.86;101615.50;5023609;28;20591;-68
2023/08/18 07:09:51;;;;;;;24.83;19.13;;;;;;;17.37;98.76;101627.06;5027666;28;20033;-68
2023/08/18 07:12:17;;;;;;;23.15;18.55;;;;;;;17.36;98.69;101614.69;5022519;28;20022;-68
2023/08/18 07:14:43;;;;;;;23.27;18.42;;;;;;;17.36;99.06;101615.50;5020134;28;20025;-68
2023/08/18 07:17:08;;;;;;;28.27;18.35;;;;;;;17.37;98.92;101611.78;5018991;28;20029;-68
2023/08/18 07:19:33;;;;;;;23.30;18.02;;;;;;;17.35;98.80;101613.84;5031088;28;20022;-68
2023/08/18 07:21:59;;;;;;;23.45;18.25;;;;;;;17.36;99.07;101604.75;5029650;28;20033;-69
2023/08/18 07:24:24;;;;;;;23.70;18.00;;;;;;;17.39;99.20;101615.09;5030608;28;20143;-68
2023/08/18 07:26:51;;;;;;;25.00;19.20;;;;;;;17.46;99.32;101607.91;5018645;28;20046;-68
2023/08/18 07:29:16;;;;;;;25.73;18.52;;;;;;;17.48;99.32;101607.72;5029289;28;20036;-68
2023/08/18 07:31:42;;;;;;;23.45;18.52;;;;;;;17.50;99.38;101611.88;5025583;28;20029;-68
2023/08/18 07:34:08;;;;;;;28.73;19.80;;;;;;;17.50;99.45;101613.72;5015895;28;20025;-68
2023/08/18 07:36:33;;;;;;;23.90;19.23;;;;;;;17.58;99.79;101616.25;5020245;28;20021;-68
2023/08/18 07:38:59;;;;;;;26.40;18.92;;;;;;;17.59;99.79;101616.03;5029305;28;20021;-68
2023/08/18 07:41:24;;;;;;;26.23;18.15;;;;;;;17.62;99.63;101615.63;5022120;28;20026;-68
2023/08/18 07:43:49;;;;;;;25.10;19.65;;;;;;;17.72;99.76;101604.59;5024108;28;20021;-68
2023/08/18 07:46:14;;;;;;;24.92;19.15;;;;;;;17.73;99.51;101611.63;5026325;28;20025;-69
2023/08/18 07:48:40;;;;;;;28.33;19.00;;;;;;;17.73;99.11;101605.41;5030276;28;20587;-68
2023/08/18 07:51:05;;;;;;;24.58;18.92;;;;;;;17.75;98.98;101606.03;5030420;28;20018;-68
2023/08/18 07:53:31;;;;;;;26.10;18.67;;;;;;;17.76;98.95;101611.22;5028669;28;20033;-68
2023/08/18 07:55:56;;;;;;;28.45;19.33;;;;;;;17.86;99.08;101616.22;5025451;28;20151;-68
2023/08/18 07:58:22;;;;;;;25.13;19.55;;;;;;;17.85;98.63;101625.31;5027047;28;20025;-68
2023/08/18 08:00:47;;;;;;;26.00;19.98;;;;;;;17.91;98.93;101621.81;5021216;28;20026;-68
2023/08/18 08:03:13;;;;;;;26.35;19.45;;;;;;;17.94;99.13;101618.75;5026287;28;20044;-68
2023/08/18 08:05:38;;;;;;;26.95;18.98;;;;;;;17.93;98.98;101619.78;5019318;28;20061;-68
2023/08/18 08:08:04;;;;;;;24.92;19.75;;;;;;;17.97;99.02;101621.03;5028384;28;20056;-68
2023/08/18 08:10:29;;;;;;;24.95;19.17;;;;;;;18.03;98.97;101620.22;5027748;28;20106;-68
2023/08/18 08:12:54;;;;;;;25.23;19.52;;;;;;;18.06;98.83;101622.53;5023304;28;20060;-68
2023/08/18 08:15:19;;;;;;;25.77;18.33;;;;;;;18.08;98.60;101625.84;5027161;28;20652;-68
2023/08/18 08:17:45;;;;;;;25.08;18.83;;;;;;;18.08;98.19;101625.84;5029100;28;20025;-68
2023/08/18 08:20:17;;;;;;;25.30;18.80;;;;;;;18.10;98.16;101631.84;5027500;28;20159;-68
2023/08/18 08:22:44;;;;;;;24.85;19.55;;;;;;;18.11;98.08;101619.22;5030639;28;20578;-68
2023/08/18 08:25:10;;;;;;;27.45;19.77;;;;;;;18.16;97.93;101622.97;5029327;28;20029;-68
2023/08/18 08:27:36;;;;;;;25.75;19.55;;;;;;;18.21;98.30;101623.22;5028915;28;20037;-68
2023/08/18 08:30:01;;;;;;;28.08;19.65;;;;;;;18.22;98.26;101618.66;5026495;28;20028;-68
2023/08/18 08:32:26;;;;;;;26.02;19.13;;;;;;;18.23;97.96;101629.22;5029283;28;20052;-68
2023/08/18 08:34:52;;;;;;;25.00;19.02;;;;;;;18.29;98.09;101624.06;5027239;28;20047;-68
2023/08/18 08:37:17;;;;;;;22.73;18.17;;;;;;;18.27;97.90;101625.09;5027863;28;20052;-68
2023/08/18 08:39:43;;;;;;;26.10;19.70;;;;;;;18.29;97.82;101637.50;5028304;28;20133;-68
2023/08/18 08:42:09;;;;;;;26.48;19.42;;;;;;;18.24;97.68;101643.50;5025104;28;20025;-68
2023/08/18 08:44:34;;;;;;;27.85;20.63;;;;;;;18.27;97.59;101643.09;5027593;28;20030;-68
2023/08/18 08:47:00;;;;;;;25.63;19.83;;;;;;;18.26;97.71;101633.34;5025718;28;20108;-68
2023/08/18 08:49:29;;;;;;;27.98;19.98;;;;;;;18.29;97.74;101648.25;5028282;28;20021;-68
2023/08/18 08:51:59;;;;;;;27.10;19.45;;;;;;;18.40;98.11;101644.97;5025302;28;20017;-68
2023/08/18 08:54:28;;;;;;;27.92;19.48;;;;;;;18.47;98.34;101643.13;5027836;28;20029;-68
2023/08/18 08:56:53;;;;;;;26.23;20.45;;;;;;;18.50;98.17;101635.50;5018617;28;20029;-69
2023/08/18 08:59:20;;;;;;;31.08;21.33;;;;;;;18.57;97.98;101641.72;5027638;28;20037;-68
2023/08/18 09:01:46;;;;;;;28.55;20.45;;;;;;;18.61;97.69;101647.50;5028321;28;20120;-68
2023/08/18 09:04:11;;;;;;;26.85;19.95;;;;;;;18.61;97.52;101642.13;5024915;28;20044;-68
2023/08/18 09:06:37;;;;;;;26.75;20.75;;;;;;;18.65;97.09;101646.09;5026441;28;20029;-68
2023/08/18 09:09:03;;;;;;;26.05;20.70;;;;;;;18.72;96.95;101649.63;5017103;28;20025;-68
2023/08/18 09:11:47;;;;;;;27.60;20.95;;;;;;;18.78;96.72;101646.13;5022764;28;20059;-68
2023/08/18 09:14:13;;;;;;;26.35;20.60;;;;;;;18.79;96.58;101649.63;5023881;28;20041;-68
2023/08/18 09:16:39;;;;;;;27.05;20.92;;;;;;;18.84;96.16;101648.00;5026889;28;20029;-68
2023/08/18 09:19:04;;;;;;;31.17;20.42;;;;;;;18.86;96.16;101642.41;5018601;28;20459;-68
2023/08/18 09:21:32;;;;;;;29.95;21.25;;;;;;;18.93;96.24;101648.63;5023023;28;20079;-68
2023/08/18 09:23:58;;;;;;;24.67;19.52;;;;;;;19.05;96.46;101649.66;5029597;28;20041;-68
2023/08/18 09:26:24;;;;;;;26.33;20.20;;;;;;;19.04;96.23;101631.03;5020796;28;20025;-68
2023/08/18 09:28:50;;;;;;;28.80;19.55;;;;;;;19.09;95.60;101634.78;5027568;28;20404;-69
2023/08/18 09:31:16;;;;;;;25.65;20.70;;;;;;;19.12;94.99;101633.53;5014845;28;20080;-68
2023/08/18 09:33:42;;;;;;;27.42;21.00;;;;;;;19.13;95.07;101630.63;5025249;28;20609;-68
2023/08/18 09:36:11;;;;;;;26.35;20.35;;;;;;;19.11;94.74;101631.88;5028226;28;20029;-68
2023/08/18 09:38:40;;;;;;;26.08;20.02;;;;;;;19.15;94.68;101627.72;5028886;28;20060;-68
2023/08/18 09:41:10;;;;;;;25.38;19.95;;;;;;;19.18;94.78;101630.00;5023917;28;20034;-68
2023/08/18 09:43:35;;;;;;;;;;;;;;;19.35;94.96;101633.91;5020953;28;20055;-68
2023/08/18 09:46:04;;;;;;;31.98;22.48;;;;;;;19.36;94.63;101618.56;5024348;28;20360;-68
2023/08/18 09:48:35;;;;;;;30.23;22.67;;;;;;;19.31;93.87;101629.16;5026877;28;20691;-68
2023/08/18 09:51:05;;;;;;;29.95;23.42;;;;;;;19.31;93.77;101627.28;5026304;28;20021;-68
2023/08/18 09:53:31;;;;;;;32.55;22.02;;;;;;;19.36;93.95;101629.34;5020636;28;20036;-68
2023/08/18 09:56:03;;;;;;;30.73;22.83;;;;;;;19.42;93.66;101631.22;5017380;28;20029;-69
2023/08/18 09:58:40;;;;;;;30.88;22.67;;;;;;;19.46;93.71;101624.38;5020682;28;20025;-68
2023/08/18 10:01:08;;;;;;;36.70;23.95;;;;;;;19.45;93.03;101623.53;5022409;28;20052;-68
2023/08/18 10:03:40;;;;;;;34.88;24.08;;;;;;;19.52;93.13;101617.31;5025102;28;20021;-68
2023/08/18 10:06:09;;;;;;;34.38;25.67;;;;;;;19.51;92.73;101624.56;5022453;28;20025;-68
2023/08/18 10:08:34;;;;;;;33.55;25.17;;;;;;;19.63;93.01;101624.78;5018021;28;20034;-68
2023/08/18 10:11:01;;;;;;;31.85;24.38;;;;;;;19.70;93.00;101622.91;5023358;28;20071;-68
2023/08/18 10:13:29;;;;;;;30.77;23.33;;;;;;;19.78;93.20;101620.81;5027068;28;20020;-68
2023/08/18 10:15:55;;;;;;;33.05;23.08;;;;;;;19.88;92.88;101609.56;5027202;28;20021;-68
2023/08/18 10:18:21;;;;;;;28.38;21.98;;;;;;;19.95;92.57;101613.09;5026278;28;20025;-68
2023/08/18 10:20:52;;;;;;;28.80;22.30;;;;;;;19.95;91.79;101610.38;5017889;28;20479;-69
2023/08/18 10:23:18;;;;;;;28.08;22.42;;;;;;;19.98;91.74;101611.81;5028909;28;20096;-68
2023/08/18 10:25:45;;;;;;;30.65;22.60;;;;;;;20.02;91.10;101611.19;5016607;28;20075;-68
2023/08/18 10:28:15;;;;;;;30.83;23.77;;;;;;;20.09;91.37;101606.56;5017357;28;20022;-69
2023/08/18 10:30:40;;;;;;;32.13;23.15;;;;;;;20.07;90.93;101602.44;5023213;28;20559;-68
2023/08/18 10:33:06;;;;;;;27.80;22.55;;;;;;;20.14;90.82;101595.13;5014844;28;20590;-68
2023/08/18 10:35:32;;;;;;;29.08;23.00;;;;;;;20.24;91.02;101584.72;5025877;28;20082;-68
2023/08/18 10:38:01;;;;;;;30.58;22.35;;;;;;;20.27;90.60;101589.69;5019781;28;20112;-68
2023/08/18 10:40:33;;;;;;;27.73;22.75;;;;;;;20.32;90.07;101587.16;5023376;28;20025;-68
2023/08/18 10:43:03;;;;;;;28.75;22.42;;;;;;;20.34;89.67;101582.38;5025886;28;20059;-68
2023/08/18 10:45:29;;;;;;;28.52;22.92;;;;;;;20.46;89.84;101587.94;5023884;28;20605;-68
2023/08/18 10:48:00;;;;;;;30.60;23.17;;;;;;;20.57;89.82;101591.81;5015537;28;20541;-69
2023/08/18 10:50:28;;;;;;;31.88;23.88;;;;;;;20.57;89.18;101581.84;5025336;28;20013;-69
2023/08/18 10:52:56;;;;;;;32.50;24.75;;;;;;;20.61;88.98;101580.38;5024284;28;20087;-68
2023/08/18 10:55:23;;;;;;;29.23;23.40;;;;;;;20.75;89.01;101583.78;5024880;28;20056;-68
2023/08/18 10:57:48;;;;;;;31.15;23.52;;;;;;;20.86;89.09;101582.25;5025094;28;20508;-68
2023/08/18 11:00:15;;;;;;;29.63;22.95;;;;;;;20.99;88.61;101587.53;5027614;28;20018;-68
2023/08/18 11:02:41;;;;;;;30.10;22.52;;;;;;;21.06;88.22;101577.50;5019293;28;20083;-69
2023/08/18 11:05:07;;;;;;;28.38;22.45;;;;;;;21.17;87.77;101576.78;5020480;28;20376;-68